sensor_id;sensor_type;location;lat;lon;timestamp;P1;durP1;ratioP1;P2;durP2;ratioP2
4500;SDS011;2263;54.654;9.410;2023-01-01T00:00:39;24.23;;;13.80;;
4500;SDS011;2263;54.654;9.410;2023-01-01T00:03:06;31.70;;;15.50;;
4500;SDS011;2263;54.654;9.410;2023-01-01T00:05:33;32.97;;;13.20;;
4500;SDS011;2263;54.654;9.410;2023-01-01T00:08:04;35.03;;;11.27;;
4500;SDS011;2263;54.654;9.410;2023-01-01T00:10:33;30.13;;;11.90;;
4500;SDS011;2263;54.654;9.410;2023-01-01T00:13:02;27.93;;;10.30;;
4500;SDS011;2263;54.654;9.410;2023-01-01T00:15:30;28.70;;;10.40;;
4500;SDS011;2263;54.654;9.410;2023-01-01T00:17:57;29.87;;;10.60;;
4500;SDS011;2263;54.654;9.410;2023-01-01T00:20:24;28.80;;;8.93;;
4500;SDS011;2263;54.654;9.410;2023-01-01T00:22:58;26.70;;;9.50;;
4500;SDS011;2263;54.654;9.410;2023-01-01T00:25:25;26.20;;;9.63;;
4500;SDS011;2263;54.654;9.410;2023-01-01T00:27:53;30.80;;;12.20;;
4500;SDS011;2263;54.654;9.410;2023-01-01T00:30:21;21.03;;;7.77;;
4500;SDS011;2263;54.654;9.410;2023-01-01T00:32:50;30.80;;;9.73;;
4500;SDS011;2263;54.654;9.410;2023-01-01T00:35:24;28.03;;;9.27;;
4500;SDS011;2263;54.654;9.410;2023-01-01T00:37:53;20.70;;;8.87;;
4500;SDS011;2263;54.654;9.410;2023-01-01T00:40:20;27.77;;;11.30;;
4500;SDS011;2263;54.654;9.410;2023-01-01T00:42:48;20.50;;;8.93;;
4500;SDS011;2263;54.654;9.410;2023-01-01T00:45:15;14.20;;;7.83;;
4500;SDS011;2263;54.654;9.410;2023-01-01T00:47:48;22.33;;;8.80;;
4500;SDS011;2263;54.654;9.410;2023-01-01T00:50:17;30.20;;;10.40;;
4500;SDS011;2263;54.654;9.410;2023-01-01T00:52:45;32.43;;;9.87;;
4500;SDS011;2263;54.654;9.410;2023-01-01T00:55:14;48.17;;;11.97;;
4500;SDS011;2263;54.654;9.410;2023-01-01T00:57:42;21.37;;;10.67;;
4500;SDS011;2263;54.654;9.410;2023-01-01T01:00:09;22.57;;;10.40;;
4500;SDS011;2263;54.654;9.410;2023-01-01T01:02:37;31.67;;;10.70;;
4500;SDS011;2263;54.654;9.410;2023-01-01T01:05:05;19.70;;;9.53;;
4500;SDS011;2263;54.654;9.410;2023-01-01T01:07:36;26.27;;;9.27;;
4500;SDS011;2263;54.654;9.410;2023-01-01T01:10:04;27.60;;;10.33;;
4500;SDS011;2263;54.654;9.410;2023-01-01T01:12:33;22.03;;;11.77;;
4500;SDS011;2263;54.654;9.410;2023-01-01T01:15:09;24.53;;;9.60;;
4500;SDS011;2263;54.654;9.410;2023-01-01T01:17:37;30.47;;;11.17;;
4500;SDS011;2263;54.654;9.410;2023-01-01T01:20:05;35.30;;;14.63;;
4500;SDS011;2263;54.654;9.410;2023-01-01T01:22:33;27.70;;;11.73;;
4500;SDS011;2263;54.654;9.410;2023-01-01T01:25:02;20.37;;;10.80;;
4500;SDS011;2263;54.654;9.410;2023-01-01T01:27:30;38.00;;;12.13;;
4500;SDS011;2263;54.654;9.410;2023-01-01T01:29:58;23.90;;;10.77;;
4500;SDS011;2263;54.654;9.410;2023-01-01T01:32:25;30.70;;;12.13;;
4500;SDS011;2263;54.654;9.410;2023-01-01T01:34:52;28.70;;;13.43;;
4500;SDS011;2263;54.654;9.410;2023-01-01T01:37:20;17.67;;;11.73;;
4500;SDS011;2263;54.654;9.410;2023-01-01T01:39:47;23.30;;;11.57;;
4500;SDS011;2263;54.654;9.410;2023-01-01T01:42:20;24.43;;;12.60;;
4500;SDS011;2263;54.654;9.410;2023-01-01T01:44:49;16.87;;;12.03;;
4500;SDS011;2263;54.654;9.410;2023-01-01T01:50:00;36.13;;;16.87;;
4500;SDS011;2263;54.654;9.410;2023-01-01T01:52:41;40.10;;;16.30;;
4500;SDS011;2263;54.654;9.410;2023-01-01T01:55:31;35.50;;;16.90;;
4500;SDS011;2263;54.654;9.410;2023-01-01T01:58:08;37.47;;;17.00;;
4500;SDS011;2263;54.654;9.410;2023-01-01T02:00:37;32.70;;;18.80;;
4500;SDS011;2263;54.654;9.410;2023-01-01T02:03:08;32.27;;;15.90;;
4500;SDS011;2263;54.654;9.410;2023-01-01T02:05:54;38.00;;;18.97;;
4500;SDS011;2263;54.654;9.410;2023-01-01T02:08:23;37.63;;;20.67;;
4500;SDS011;2263;54.654;9.410;2023-01-01T02:10:51;28.97;;;17.90;;
4500;SDS011;2263;54.654;9.410;2023-01-01T02:13:18;43.73;;;20.30;;
4500;SDS011;2263;54.654;9.410;2023-01-01T02:18:18;46.57;;;20.10;;
4500;SDS011;2263;54.654;9.410;2023-01-01T02:20:53;47.57;;;20.23;;
4500;SDS011;2263;54.654;9.410;2023-01-01T02:29:57;46.53;;;21.40;;
4500;SDS011;2263;54.654;9.410;2023-01-01T02:35:05;39.90;;;20.90;;
4500;SDS011;2263;54.654;9.410;2023-01-01T02:37:54;47.87;;;21.50;;
4500;SDS011;2263;54.654;9.410;2023-01-01T02:40:25;37.60;;;18.87;;
4500;SDS011;2263;54.654;9.410;2023-01-01T02:42:54;42.27;;;21.67;;
4500;SDS011;2263;54.654;9.410;2023-01-01T02:45:22;45.17;;;21.47;;
4500;SDS011;2263;54.654;9.410;2023-01-01T02:47:50;42.83;;;21.50;;
4500;SDS011;2263;54.654;9.410;2023-01-01T02:50:18;43.83;;;21.37;;
4500;SDS011;2263;54.654;9.410;2023-01-01T02:55:26;43.33;;;22.10;;
4500;SDS011;2263;54.654;9.410;2023-01-01T02:58:34;46.33;;;20.60;;
4500;SDS011;2263;54.654;9.410;2023-01-01T03:09:54;30.50;;;20.30;;
4500;SDS011;2263;54.654;9.410;2023-01-01T03:12:58;38.63;;;21.00;;
4500;SDS011;2263;54.654;9.410;2023-01-01T03:15:53;39.13;;;23.10;;
4500;SDS011;2263;54.654;9.410;2023-01-01T03:18:28;58.33;;;26.90;;
4500;SDS011;2263;54.654;9.410;2023-01-01T03:21:06;47.70;;;23.13;;
4500;SDS011;2263;54.654;9.410;2023-01-01T03:23:36;52.27;;;24.40;;
4500;SDS011;2263;54.654;9.410;2023-01-01T03:26:14;42.80;;;22.30;;
4500;SDS011;2263;54.654;9.410;2023-01-01T03:28:52;43.43;;;23.57;;
4500;SDS011;2263;54.654;9.410;2023-01-01T03:31:24;55.73;;;27.53;;
4500;SDS011;2263;54.654;9.410;2023-01-01T03:33:54;40.53;;;23.57;;
4500;SDS011;2263;54.654;9.410;2023-01-01T03:36:32;48.23;;;27.40;;
4500;SDS011;2263;54.654;9.410;2023-01-01T03:39:05;48.50;;;26.53;;
4500;SDS011;2263;54.654;9.410;2023-01-01T03:44:35;47.80;;;26.70;;
4500;SDS011;2263;54.654;9.410;2023-01-01T03:47:08;48.63;;;27.60;;
4500;SDS011;2263;54.654;9.410;2023-01-01T03:49:36;50.43;;;25.53;;
4500;SDS011;2263;54.654;9.410;2023-01-01T03:52:24;56.97;;;28.30;;
4500;SDS011;2263;54.654;9.410;2023-01-01T03:55:24;47.73;;;24.20;;
4500;SDS011;2263;54.654;9.410;2023-01-01T04:00:35;48.40;;;26.80;;
4500;SDS011;2263;54.654;9.410;2023-01-01T04:03:17;38.07;;;24.50;;
4500;SDS011;2263;54.654;9.410;2023-01-01T04:05:49;42.63;;;24.20;;
4500;SDS011;2263;54.654;9.410;2023-01-01T04:08:17;53.67;;;25.13;;
4500;SDS011;2263;54.654;9.410;2023-01-01T04:10:45;49.67;;;25.20;;
4500;SDS011;2263;54.654;9.410;2023-01-01T04:13:20;49.33;;;25.90;;
4500;SDS011;2263;54.654;9.410;2023-01-01T04:15:47;49.70;;;27.30;;
4500;SDS011;2263;54.654;9.410;2023-01-01T04:18:15;48.90;;;23.30;;
4500;SDS011;2263;54.654;9.410;2023-01-01T04:20:42;51.00;;;26.33;;
4500;SDS011;2263;54.654;9.410;2023-01-01T04:23:12;63.97;;;27.10;;
4500;SDS011;2263;54.654;9.410;2023-01-01T04:25:39;51.27;;;24.23;;
4500;SDS011;2263;54.654;9.410;2023-01-01T04:28:06;49.20;;;24.20;;
4500;SDS011;2263;54.654;9.410;2023-01-01T04:30:33;46.80;;;24.30;;
4500;SDS011;2263;54.654;9.410;2023-01-01T04:33:02;42.57;;;22.73;;
4500;SDS011;2263;54.654;9.410;2023-01-01T04:35:29;47.30;;;24.73;;
4500;SDS011;2263;54.654;9.410;2023-01-01T04:37:56;45.23;;;25.60;;
4500;SDS011;2263;54.654;9.410;2023-01-01T04:40:24;48.27;;;23.97;;
4500;SDS011;2263;54.654;9.410;2023-01-01T04:42:52;57.70;;;25.07;;
4500;SDS011;2263;54.654;9.410;2023-01-01T04:45:19;52.80;;;24.60;;
4500;SDS011;2263;54.654;9.410;2023-01-01T04:47:47;51.07;;;26.80;;
4500;SDS011;2263;54.654;9.410;2023-01-01T04:50:14;45.00;;;26.70;;
4500;SDS011;2263;54.654;9.410;2023-01-01T04:52:41;45.57;;;27.87;;
4500;SDS011;2263;54.654;9.410;2023-01-01T04:55:08;60.43;;;30.80;;
4500;SDS011;2263;54.654;9.410;2023-01-01T04:57:35;51.10;;;30.37;;
4500;SDS011;2263;54.654;9.410;2023-01-01T05:00:02;58.60;;;33.73;;
4500;SDS011;2263;54.654;9.410;2023-01-01T05:02:30;58.10;;;32.30;;
4500;SDS011;2263;54.654;9.410;2023-01-01T05:04:57;52.90;;;33.50;;
4500;SDS011;2263;54.654;9.410;2023-01-01T05:07:24;64.70;;;34.27;;
4500;SDS011;2263;54.654;9.410;2023-01-01T05:09:51;63.20;;;32.80;;
4500;SDS011;2263;54.654;9.410;2023-01-01T05:12:21;58.47;;;34.13;;
4500;SDS011;2263;54.654;9.410;2023-01-01T05:14:48;58.73;;;31.80;;
4500;SDS011;2263;54.654;9.410;2023-01-01T05:17:15;63.43;;;32.60;;
4500;SDS011;2263;54.654;9.410;2023-01-01T05:19:42;50.43;;;31.27;;
4500;SDS011;2263;54.654;9.410;2023-01-01T05:22:10;52.23;;;32.50;;
4500;SDS011;2263;54.654;9.410;2023-01-01T05:24:37;54.50;;;28.27;;
4500;SDS011;2263;54.654;9.410;2023-01-01T05:27:04;53.10;;;29.60;;
4500;SDS011;2263;54.654;9.410;2023-01-01T05:29:34;47.77;;;29.50;;
4500;SDS011;2263;54.654;9.410;2023-01-01T05:32:01;60.93;;;31.43;;
4500;SDS011;2263;54.654;9.410;2023-01-01T05:34:28;59.00;;;29.50;;
4500;SDS011;2263;54.654;9.410;2023-01-01T05:36:54;57.57;;;30.67;;
4500;SDS011;2263;54.654;9.410;2023-01-01T05:39:21;57.43;;;31.03;;
4500;SDS011;2263;54.654;9.410;2023-01-01T05:41:49;57.90;;;32.27;;
4500;SDS011;2263;54.654;9.410;2023-01-01T05:44:17;59.00;;;33.23;;
4500;SDS011;2263;54.654;9.410;2023-01-01T05:46:45;53.97;;;31.70;;
4500;SDS011;2263;54.654;9.410;2023-01-01T05:49:12;55.03;;;33.50;;
4500;SDS011;2263;54.654;9.410;2023-01-01T05:51:39;56.13;;;30.80;;
4500;SDS011;2263;54.654;9.410;2023-01-01T05:54:05;55.17;;;33.30;;
4500;SDS011;2263;54.654;9.410;2023-01-01T05:56:32;52.27;;;30.40;;
4500;SDS011;2263;54.654;9.410;2023-01-01T05:58:59;67.13;;;30.60;;
4500;SDS011;2263;54.654;9.410;2023-01-01T06:01:27;51.67;;;30.27;;
4500;SDS011;2263;54.654;9.410;2023-01-01T06:03:56;60.97;;;31.87;;
4500;SDS011;2263;54.654;9.410;2023-01-01T06:06:25;69.10;;;33.07;;
4500;SDS011;2263;54.654;9.410;2023-01-01T06:09:00;50.80;;;31.40;;
4500;SDS011;2263;54.654;9.410;2023-01-01T06:11:30;56.10;;;33.30;;
4500;SDS011;2263;54.654;9.410;2023-01-01T06:13:58;59.63;;;33.13;;
4500;SDS011;2263;54.654;9.410;2023-01-01T06:16:29;62.23;;;32.83;;
4500;SDS011;2263;54.654;9.410;2023-01-01T06:18:57;58.90;;;32.77;;
4500;SDS011;2263;54.654;9.410;2023-01-01T06:21:26;51.87;;;30.87;;
4500;SDS011;2263;54.654;9.410;2023-01-01T06:23:55;53.60;;;31.03;;
4500;SDS011;2263;54.654;9.410;2023-01-01T06:26:25;43.33;;;28.53;;
4500;SDS011;2263;54.654;9.410;2023-01-01T06:28:54;53.70;;;28.47;;
4500;SDS011;2263;54.654;9.410;2023-01-01T06:31:21;45.97;;;28.20;;
4500;SDS011;2263;54.654;9.410;2023-01-01T06:33:49;42.20;;;26.40;;
4500;SDS011;2263;54.654;9.410;2023-01-01T06:36:18;40.90;;;24.50;;
4500;SDS011;2263;54.654;9.410;2023-01-01T06:38:47;40.40;;;23.97;;
4500;SDS011;2263;54.654;9.410;2023-01-01T06:41:19;48.60;;;24.60;;
4500;SDS011;2263;54.654;9.410;2023-01-01T06:43:47;44.83;;;27.70;;
4500;SDS011;2263;54.654;9.410;2023-01-01T06:48:51;42.63;;;24.37;;
4500;SDS011;2263;54.654;9.410;2023-01-01T06:51:24;48.20;;;22.17;;
4500;SDS011;2263;54.654;9.410;2023-01-01T06:53:59;40.37;;;21.20;;
4500;SDS011;2263;54.654;9.410;2023-01-01T06:56:28;28.77;;;18.53;;
4500;SDS011;2263;54.654;9.410;2023-01-01T06:58:56;33.20;;;18.77;;
4500;SDS011;2263;54.654;9.410;2023-01-01T07:01:25;38.90;;;21.03;;
4500;SDS011;2263;54.654;9.410;2023-01-01T07:03:57;41.00;;;20.23;;
4500;SDS011;2263;54.654;9.410;2023-01-01T07:06:26;39.73;;;18.37;;
4500;SDS011;2263;54.654;9.410;2023-01-01T07:08:55;34.80;;;17.57;;
4500;SDS011;2263;54.654;9.410;2023-01-01T07:11:24;28.23;;;14.60;;
4500;SDS011;2263;54.654;9.410;2023-01-01T07:13:52;27.93;;;15.27;;
4500;SDS011;2263;54.654;9.410;2023-01-01T07:16:20;29.90;;;14.77;;
4500;SDS011;2263;54.654;9.410;2023-01-01T07:18:48;27.20;;;14.27;;
4500;SDS011;2263;54.654;9.410;2023-01-01T07:24:20;28.43;;;12.37;;
4500;SDS011;2263;54.654;9.410;2023-01-01T07:26:47;21.63;;;11.40;;
4500;SDS011;2263;54.654;9.410;2023-01-01T07:29:14;20.17;;;11.83;;
4500;SDS011;2263;54.654;9.410;2023-01-01T07:31:42;30.60;;;12.03;;
4500;SDS011;2263;54.654;9.410;2023-01-01T07:34:14;24.20;;;10.90;;
4500;SDS011;2263;54.654;9.410;2023-01-01T07:36:44;22.13;;;9.80;;
4500;SDS011;2263;54.654;9.410;2023-01-01T07:39:11;21.70;;;9.43;;
4500;SDS011;2263;54.654;9.410;2023-01-01T07:41:38;18.73;;;9.60;;
4500;SDS011;2263;54.654;9.410;2023-01-01T07:44:06;18.50;;;8.40;;
4500;SDS011;2263;54.654;9.410;2023-01-01T07:46:34;13.47;;;7.67;;
4500;SDS011;2263;54.654;9.410;2023-01-01T07:49:02;12.53;;;7.07;;
4500;SDS011;2263;54.654;9.410;2023-01-01T07:51:30;25.80;;;6.80;;
4500;SDS011;2263;54.654;9.410;2023-01-01T07:53:59;16.63;;;6.67;;
4500;SDS011;2263;54.654;9.410;2023-01-01T07:56:33;10.83;;;6.73;;
4500;SDS011;2263;54.654;9.410;2023-01-01T07:59:02;19.47;;;6.30;;
4500;SDS011;2263;54.654;9.410;2023-01-01T08:01:29;12.03;;;6.27;;
4500;SDS011;2263;54.654;9.410;2023-01-01T08:03:56;14.47;;;5.27;;
4500;SDS011;2263;54.654;9.410;2023-01-01T08:06:23;14.70;;;5.13;;
4500;SDS011;2263;54.654;9.410;2023-01-01T08:08:51;13.03;;;5.27;;
4500;SDS011;2263;54.654;9.410;2023-01-01T08:11:18;16.97;;;5.43;;
4500;SDS011;2263;54.654;9.410;2023-01-01T08:13:45;17.20;;;6.83;;
4500;SDS011;2263;54.654;9.410;2023-01-01T08:16:13;23.07;;;5.50;;
4500;SDS011;2263;54.654;9.410;2023-01-01T08:18:40;14.60;;;5.00;;
4500;SDS011;2263;54.654;9.410;2023-01-01T08:21:07;20.80;;;4.63;;
4500;SDS011;2263;54.654;9.410;2023-01-01T08:23:35;22.13;;;5.80;;
4500;SDS011;2263;54.654;9.410;2023-01-01T08:26:06;13.83;;;4.00;;
4500;SDS011;2263;54.654;9.410;2023-01-01T08:28:33;27.10;;;5.13;;
4500;SDS011;2263;54.654;9.410;2023-01-01T08:31:01;22.07;;;6.40;;
4500;SDS011;2263;54.654;9.410;2023-01-01T08:33:28;23.47;;;6.80;;
4500;SDS011;2263;54.654;9.410;2023-01-01T08:35:55;24.17;;;7.30;;
4500;SDS011;2263;54.654;9.410;2023-01-01T08:38:22;22.20;;;4.47;;
4500;SDS011;2263;54.654;9.410;2023-01-01T08:40:50;24.33;;;5.17;;
4500;SDS011;2263;54.654;9.410;2023-01-01T08:43:20;22.63;;;5.03;;
4500;SDS011;2263;54.654;9.410;2023-01-01T08:45:47;13.77;;;4.60;;
4500;SDS011;2263;54.654;9.410;2023-01-01T08:48:14;17.93;;;5.60;;
4500;SDS011;2263;54.654;9.410;2023-01-01T08:50:44;22.37;;;5.13;;
4500;SDS011;2263;54.654;9.410;2023-01-01T08:53:18;21.23;;;4.57;;
4500;SDS011;2263;54.654;9.410;2023-01-01T08:55:54;19.60;;;4.50;;
4500;SDS011;2263;54.654;9.410;2023-01-01T08:58:29;21.57;;;4.47;;
4500;SDS011;2263;54.654;9.410;2023-01-01T09:00:57;20.23;;;5.43;;
4500;SDS011;2263;54.654;9.410;2023-01-01T09:03:27;20.20;;;5.57;;
4500;SDS011;2263;54.654;9.410;2023-01-01T09:05:55;18.67;;;4.33;;
4500;SDS011;2263;54.654;9.410;2023-01-01T09:08:23;24.23;;;4.70;;
4500;SDS011;2263;54.654;9.410;2023-01-01T09:10:50;17.57;;;4.73;;
4500;SDS011;2263;54.654;9.410;2023-01-01T09:13:20;14.73;;;5.03;;
4500;SDS011;2263;54.654;9.410;2023-01-01T09:15:47;31.77;;;5.63;;
4500;SDS011;2263;54.654;9.410;2023-01-01T09:18:14;19.80;;;5.17;;
4500;SDS011;2263;54.654;9.410;2023-01-01T09:20:41;14.00;;;4.63;;
4500;SDS011;2263;54.654;9.410;2023-01-01T09:23:09;21.97;;;5.73;;
4500;SDS011;2263;54.654;9.410;2023-01-01T09:25:37;23.90;;;4.63;;
4500;SDS011;2263;54.654;9.410;2023-01-01T09:28:10;23.20;;;4.73;;
4500;SDS011;2263;54.654;9.410;2023-01-01T09:30:39;17.60;;;4.30;;
4500;SDS011;2263;54.654;9.410;2023-01-01T09:33:06;33.80;;;6.00;;
4500;SDS011;2263;54.654;9.410;2023-01-01T09:35:33;35.60;;;6.30;;
4500;SDS011;2263;54.654;9.410;2023-01-01T09:38:01;24.97;;;5.37;;
4500;SDS011;2263;54.654;9.410;2023-01-01T09:43:32;26.10;;;5.87;;
4500;SDS011;2263;54.654;9.410;2023-01-01T09:46:05;24.03;;;4.37;;
4500;SDS011;2263;54.654;9.410;2023-01-01T09:48:35;19.57;;;4.80;;
4500;SDS011;2263;54.654;9.410;2023-01-01T09:51:12;27.07;;;4.90;;
4500;SDS011;2263;54.654;9.410;2023-01-01T09:56:20;31.87;;;6.40;;
4500;SDS011;2263;54.654;9.410;2023-01-01T09:58:52;25.90;;;5.37;;
4500;SDS011;2263;54.654;9.410;2023-01-01T10:02:09;18.53;;;5.30;;
4500;SDS011;2263;54.654;9.410;2023-01-01T10:12:11;28.10;;;4.53;;
4500;SDS011;2263;54.654;9.410;2023-01-01T10:14:48;25.67;;;5.70;;
4500;SDS011;2263;54.654;9.410;2023-01-01T10:17:33;29.63;;;4.40;;
4500;SDS011;2263;54.654;9.410;2023-01-01T10:20:17;32.13;;;5.00;;
4500;SDS011;2263;54.654;9.410;2023-01-01T10:22:51;25.20;;;4.43;;
4500;SDS011;2263;54.654;9.410;2023-01-01T10:25:29;28.63;;;4.10;;
4500;SDS011;2263;54.654;9.410;2023-01-01T10:28:21;30.27;;;5.60;;
4500;SDS011;2263;54.654;9.410;2023-01-01T10:30:50;28.73;;;4.30;;
4500;SDS011;2263;54.654;9.410;2023-01-01T10:33:21;33.17;;;5.10;;
4500;SDS011;2263;54.654;9.410;2023-01-01T10:35:49;37.63;;;5.00;;
4500;SDS011;2263;54.654;9.410;2023-01-01T10:38:23;20.93;;;4.63;;
4500;SDS011;2263;54.654;9.410;2023-01-01T10:40:52;26.07;;;4.47;;
4500;SDS011;2263;54.654;9.410;2023-01-01T10:43:32;27.43;;;5.93;;
4500;SDS011;2263;54.654;9.410;2023-01-01T10:45:59;32.10;;;4.70;;
4500;SDS011;2263;54.654;9.410;2023-01-01T10:48:28;33.67;;;4.67;;
4500;SDS011;2263;54.654;9.410;2023-01-01T10:51:02;34.03;;;6.00;;
4500;SDS011;2263;54.654;9.410;2023-01-01T10:53:39;42.63;;;6.90;;
4500;SDS011;2263;54.654;9.410;2023-01-01T10:58:46;25.63;;;5.40;;
4500;SDS011;2263;54.654;9.410;2023-01-01T11:03:55;34.80;;;5.20;;
4500;SDS011;2263;54.654;9.410;2023-01-01T11:06:43;34.17;;;6.73;;
4500;SDS011;2263;54.654;9.410;2023-01-01T11:09:19;24.63;;;6.53;;
4500;SDS011;2263;54.654;9.410;2023-01-01T11:12:01;42.20;;;7.93;;
4500;SDS011;2263;54.654;9.410;2023-01-01T11:14:51;46.60;;;6.77;;
4500;SDS011;2263;54.654;9.410;2023-01-01T11:17:21;33.90;;;6.37;;
4500;SDS011;2263;54.654;9.410;2023-01-01T11:19:50;31.83;;;5.90;;
4500;SDS011;2263;54.654;9.410;2023-01-01T11:23:00;29.57;;;6.97;;
4500;SDS011;2263;54.654;9.410;2023-01-01T11:27:49;32.17;;;5.20;;
4500;SDS011;2263;54.654;9.410;2023-01-01T11:32:48;35.23;;;4.77;;
4500;SDS011;2263;54.654;9.410;2023-01-01T11:35:22;20.43;;;4.73;;
4500;SDS011;2263;54.654;9.410;2023-01-01T11:37:51;29.93;;;6.20;;
4500;SDS011;2263;54.654;9.410;2023-01-01T11:40:32;25.53;;;4.27;;
4500;SDS011;2263;54.654;9.410;2023-01-01T11:43:02;32.83;;;5.03;;
4500;SDS011;2263;54.654;9.410;2023-01-01T11:45:38;22.43;;;5.43;;
4500;SDS011;2263;54.654;9.410;2023-01-01T11:48:49;31.10;;;5.50;;
4500;SDS011;2263;54.654;9.410;2023-01-01T11:51:06;34.93;;;6.30;;
4500;SDS011;2263;54.654;9.410;2023-01-01T11:53:38;33.43;;;5.27;;
4500;SDS011;2263;54.654;9.410;2023-01-01T11:56:17;25.50;;;5.17;;
4500;SDS011;2263;54.654;9.410;2023-01-01T11:58:59;27.23;;;5.30;;
4500;SDS011;2263;54.654;9.410;2023-01-01T12:01:44;27.37;;;5.40;;
4500;SDS011;2263;54.654;9.410;2023-01-01T12:04:29;35.80;;;7.40;;
4500;SDS011;2263;54.654;9.410;2023-01-01T12:07:07;30.00;;;5.20;;
4500;SDS011;2263;54.654;9.410;2023-01-01T12:12:34;32.13;;;4.63;;
4500;SDS011;2263;54.654;9.410;2023-01-01T12:15:17;30.67;;;5.40;;
4500;SDS011;2263;54.654;9.410;2023-01-01T12:17:48;36.20;;;6.00;;
4500;SDS011;2263;54.654;9.410;2023-01-01T12:20:24;31.30;;;5.77;;
4500;SDS011;2263;54.654;9.410;2023-01-01T12:23:09;32.50;;;5.73;;
4500;SDS011;2263;54.654;9.410;2023-01-01T12:25:38;31.87;;;4.57;;
4500;SDS011;2263;54.654;9.410;2023-01-01T12:41:53;20.57;;;3.70;;
4500;SDS011;2263;54.654;9.410;2023-01-01T12:45:03;21.43;;;4.47;;
4500;SDS011;2263;54.654;9.410;2023-01-01T13:01:27;25.17;;;8.13;;
4500;SDS011;2263;54.654;9.410;2023-01-01T13:04:00;37.80;;;5.60;;
4500;SDS011;2263;54.654;9.410;2023-01-01T13:06:35;31.20;;;6.67;;
4500;SDS011;2263;54.654;9.410;2023-01-01T13:09:14;29.47;;;5.77;;
4500;SDS011;2263;54.654;9.410;2023-01-01T13:11:57;24.77;;;5.07;;
4500;SDS011;2263;54.654;9.410;2023-01-01T13:14:43;23.50;;;5.80;;
4500;SDS011;2263;54.654;9.410;2023-01-01T13:17:30;42.30;;;5.10;;
4500;SDS011;2263;54.654;9.410;2023-01-01T13:20:15;22.73;;;4.93;;
4500;SDS011;2263;54.654;9.410;2023-01-01T13:22:49;28.53;;;5.03;;
4500;SDS011;2263;54.654;9.410;2023-01-01T13:25:20;19.23;;;5.17;;
4500;SDS011;2263;54.654;9.410;2023-01-01T13:36:36;18.97;;;3.43;;
4500;SDS011;2263;54.654;9.410;2023-01-01T13:44:15;28.50;;;5.10;;
4500;SDS011;2263;54.654;9.410;2023-01-01T13:47:07;25.30;;;6.00;;
4500;SDS011;2263;54.654;9.410;2023-01-01T13:50:48;17.27;;;4.30;;
4500;SDS011;2263;54.654;9.410;2023-01-01T13:55:55;25.67;;;5.13;;
4500;SDS011;2263;54.654;9.410;2023-01-01T14:10:31;18.43;;;4.50;;
4500;SDS011;2263;54.654;9.410;2023-01-01T14:18:05;25.73;;;4.70;;
4500;SDS011;2263;54.654;9.410;2023-01-01T14:23:09;28.30;;;4.17;;
4500;SDS011;2263;54.654;9.410;2023-01-01T14:25:41;25.80;;;4.67;;
4500;SDS011;2263;54.654;9.410;2023-01-01T14:28:14;19.27;;;5.80;;
4500;SDS011;2263;54.654;9.410;2023-01-01T14:30:45;22.87;;;3.40;;
4500;SDS011;2263;54.654;9.410;2023-01-01T14:33:20;24.83;;;4.60;;
4500;SDS011;2263;54.654;9.410;2023-01-01T14:35:56;31.00;;;5.33;;
4500;SDS011;2263;54.654;9.410;2023-01-01T14:38:28;22.90;;;4.13;;
4500;SDS011;2263;54.654;9.410;2023-01-01T14:43:57;23.33;;;5.07;;
4500;SDS011;2263;54.654;9.410;2023-01-01T14:46:49;24.37;;;4.93;;
4500;SDS011;2263;54.654;9.410;2023-01-01T14:49:20;22.37;;;4.57;;
4500;SDS011;2263;54.654;9.410;2023-01-01T14:51:54;32.60;;;4.23;;
4500;SDS011;2263;54.654;9.410;2023-01-01T14:54:28;20.70;;;3.60;;
4500;SDS011;2263;54.654;9.410;2023-01-01T14:56:58;19.47;;;3.10;;
4500;SDS011;2263;54.654;9.410;2023-01-01T14:59:27;24.90;;;5.40;;
4500;SDS011;2263;54.654;9.410;2023-01-01T15:04:42;31.97;;;5.83;;
4500;SDS011;2263;54.654;9.410;2023-01-01T15:07:17;29.97;;;4.67;;
4500;SDS011;2263;54.654;9.410;2023-01-01T15:09:58;29.70;;;6.77;;
4500;SDS011;2263;54.654;9.410;2023-01-01T15:12:28;29.77;;;4.30;;
4500;SDS011;2263;54.654;9.410;2023-01-01T15:14:58;24.20;;;4.70;;
4500;SDS011;2263;54.654;9.410;2023-01-01T15:17:27;19.20;;;4.07;;
4500;SDS011;2263;54.654;9.410;2023-01-01T15:22:47;29.87;;;4.40;;
4500;SDS011;2263;54.654;9.410;2023-01-01T15:25:16;25.33;;;4.10;;
4500;SDS011;2263;54.654;9.410;2023-01-01T15:27:51;37.70;;;5.50;;
4500;SDS011;2263;54.654;9.410;2023-01-01T15:30:27;26.70;;;4.83;;
4500;SDS011;2263;54.654;9.410;2023-01-01T15:33:05;26.10;;;4.33;;
4500;SDS011;2263;54.654;9.410;2023-01-01T15:35:34;20.67;;;3.43;;
4500;SDS011;2263;54.654;9.410;2023-01-01T15:40:40;27.67;;;5.97;;
4500;SDS011;2263;54.654;9.410;2023-01-01T15:43:20;30.10;;;6.00;;
4500;SDS011;2263;54.654;9.410;2023-01-01T15:48:42;30.47;;;5.30;;
4500;SDS011;2263;54.654;9.410;2023-01-01T15:51:20;23.50;;;4.30;;
4500;SDS011;2263;54.654;9.410;2023-01-01T15:53:59;39.33;;;5.40;;
4500;SDS011;2263;54.654;9.410;2023-01-01T15:56:29;20.63;;;3.87;;
4500;SDS011;2263;54.654;9.410;2023-01-01T16:01:36;35.83;;;5.70;;
4500;SDS011;2263;54.654;9.410;2023-01-01T16:04:24;53.57;;;4.90;;
4500;SDS011;2263;54.654;9.410;2023-01-01T16:06:54;27.77;;;4.50;;
4500;SDS011;2263;54.654;9.410;2023-01-01T16:09:23;40.67;;;5.20;;
4500;SDS011;2263;54.654;9.410;2023-01-01T16:11:54;18.97;;;3.40;;
4500;SDS011;2263;54.654;9.410;2023-01-01T16:14:22;31.30;;;5.67;;
4500;SDS011;2263;54.654;9.410;2023-01-01T16:16:52;41.97;;;7.00;;
4500;SDS011;2263;54.654;9.410;2023-01-01T16:19:23;30.17;;;4.27;;
4500;SDS011;2263;54.654;9.410;2023-01-01T16:21:50;25.27;;;4.73;;
4500;SDS011;2263;54.654;9.410;2023-01-01T16:24:20;26.57;;;4.73;;
4500;SDS011;2263;54.654;9.410;2023-01-01T16:26:47;18.43;;;3.80;;
4500;SDS011;2263;54.654;9.410;2023-01-01T16:29:14;32.93;;;4.33;;
4500;SDS011;2263;54.654;9.410;2023-01-01T16:31:42;26.73;;;4.30;;
4500;SDS011;2263;54.654;9.410;2023-01-01T16:34:10;16.50;;;3.77;;
4500;SDS011;2263;54.654;9.410;2023-01-01T16:36:40;23.03;;;3.90;;
4500;SDS011;2263;54.654;9.410;2023-01-01T16:39:11;26.47;;;3.70;;
4500;SDS011;2263;54.654;9.410;2023-01-01T16:41:41;29.20;;;3.37;;
4500;SDS011;2263;54.654;9.410;2023-01-01T16:44:13;44.80;;;4.87;;
4500;SDS011;2263;54.654;9.410;2023-01-01T16:46:40;16.83;;;3.50;;
4500;SDS011;2263;54.654;9.410;2023-01-01T16:49:09;35.57;;;4.30;;
4500;SDS011;2263;54.654;9.410;2023-01-01T16:51:42;25.70;;;4.33;;
4500;SDS011;2263;54.654;9.410;2023-01-01T16:54:10;22.30;;;3.93;;
4500;SDS011;2263;54.654;9.410;2023-01-01T16:56:37;15.97;;;3.23;;
4500;SDS011;2263;54.654;9.410;2023-01-01T16:59:04;36.73;;;6.70;;
4500;SDS011;2263;54.654;9.410;2023-01-01T17:01:31;21.73;;;4.47;;
4500;SDS011;2263;54.654;9.410;2023-01-01T17:03:59;21.73;;;5.57;;
4500;SDS011;2263;54.654;9.410;2023-01-01T17:06:29;23.60;;;5.07;;
4500;SDS011;2263;54.654;9.410;2023-01-01T17:08:59;31.77;;;5.50;;
4500;SDS011;2263;54.654;9.410;2023-01-01T17:11:26;35.63;;;5.50;;
4500;SDS011;2263;54.654;9.410;2023-01-01T17:13:54;25.80;;;6.73;;
4500;SDS011;2263;54.654;9.410;2023-01-01T17:16:22;24.70;;;6.43;;
4500;SDS011;2263;54.654;9.410;2023-01-01T17:18:55;37.67;;;6.37;;
4500;SDS011;2263;54.654;9.410;2023-01-01T17:21:40;26.23;;;5.40;;
4500;SDS011;2263;54.654;9.410;2023-01-01T17:24:07;18.50;;;5.07;;
4500;SDS011;2263;54.654;9.410;2023-01-01T17:26:35;34.97;;;5.53;;
4500;SDS011;2263;54.654;9.410;2023-01-01T17:29:08;36.37;;;5.20;;
4500;SDS011;2263;54.654;9.410;2023-01-01T17:31:35;33.50;;;5.23;;
4500;SDS011;2263;54.654;9.410;2023-01-01T17:34:03;42.90;;;6.33;;
4500;SDS011;2263;54.654;9.410;2023-01-01T17:36:30;27.10;;;5.30;;
4500;SDS011;2263;54.654;9.410;2023-01-01T17:38:57;34.20;;;5.63;;
4500;SDS011;2263;54.654;9.410;2023-01-01T17:41:25;23.80;;;3.83;;
4500;SDS011;2263;54.654;9.410;2023-01-01T17:43:52;22.80;;;4.20;;
4500;SDS011;2263;54.654;9.410;2023-01-01T17:46:20;30.40;;;4.33;;